Aérodrome :
LOGIN :

S'inscrire | Disclaimer

   EN    FR    IT 

 










Légende :    VFR   VFR Marginal   IFR   IFR Intensif   IFR Très Intensif
Visi : 
Plafond : 
>= 8 km
>= 3000ft
5 à 8 km
1000 à 3000 ft
1500m à 5 km
500 à 1000 ft
800 à 1500m
200 à 500 ft
< 800m
< 200 ft
Symboles :   Orages  Brouillard  Fortes neiges  Fortes précipitations  Vent > 20 kt
SIGMETs :   Divers  Orages  Givrage  Turbulence  Onde Orograph.  Cendres Volcan.







- Altitude de l'aérodrome : 49 ft
- Code IATA : GLZ


EHGR - Gilze-Rijen Airbase

DERNIER METAR :
  • 171125Z AUTO 22005KT 200V270 9999 NCD 05/03 Q1023 BLU

METARs EXPIRÉS :
  • 171055Z AUTO 23004KT 200V260 9999 NCD 04/02 Q1023 BLU
  • 171025Z AUTO 24004KT 9999 NCD 03/02 Q1023 BLU
  • 170955Z AUTO 23003KT 200V260 9999 NCD 02/01 Q1023 BLU
  • 170925Z AUTO 24004KT 190V280 9000 BR NCD 02/01 Q1023 BLU
  • 170909Z AUTO 23004KT 8000 BR NCD 01/00 Q1023 BLU
  • 170858Z AUTO 24003KT 4100 BR NCD 01/00 Q1023 GRN
  • 170855Z AUTO 23002KT 2600 BR NCD 00/M00 Q1023 YLO
  • 170837Z AUTO 23003KT 210V280 2000 BR NCD M01/M01 Q1022 YLO

Prévision TAF périmée.
Pas de NOTAMs connus pour ce terrain.



MET'MAP, la Météo Aéronautique d'un coup d'oeil ! - Copyright ORBIFLY Décembre 2007 - Disclaimer

ORBIFLY MET'MAP TEAM :

Programmation & Développement : Alexandra Zaïnal
Conception & Développement : Baudouin d'Aumeries
Co-Programmation & Développement : Marc-Olivier Méhu
Soutien technique & logistique : Manuel Goepfert

Contact : metmap@orbifly.com




SOURCES & CREDITS :

   NOAA